Página principal
METAR-TAF:

METAR-TAF

Aeroportos :

Atyrau, Cazaquistão

latitude: 47-07-19N, longitude: 051-49-17E, altura: -22 m

Observação actual do tempo

O boletim foi feito há 22 minutos, às 00:00 UTC
Vento 12 kt de oeste
Temperatura 11°C
Humidade 87%
Pressão 1021 hPa
Visibilidade: 5000 m
neblina

METAR: UATG 180000Z 27006MPS 5000 BR NSC 11/09 Q1021 R32/CLRD70 NOSIG RMK QFE767/1023

Hora: 06:22 (00:22 UTC)

Previsão

O boletim foi feito há 1 hora e 21 minutos, às 23:01 UTC
Previsão válida de 18 às 00 UTC a 18 às 24 UTC
Vento 16 kt de oeste
Visibilidade: 3000 m
Nuvens dispersasa uma altura de 1000 ft
Nuvens fragmentadasa uma altura de 3000 ft
neblina
A partir de 18 às 0500 UTC
Vento 14 kt de nor-nordeste
Visibilidade 10 km ou mais
Nuvens dispersasa uma altura de 3300 ft

TAF: UATG 172301Z 1800/1824 27008MPS 3000 BR SCT010 BKN030 TX17/1810Z TN07/1804Z FM180500 02007MPS 9999 SCT033

Observações e previsões do tempo de mais de 4000 aeroportos (mensagens METAR e TAF).

As estações disponíveis são os pontos amarelos e vermelhos sobre o mapa.

Mova o rato sobre o mapa para ver o nome da estação.

Depois clique no ponto para visualizar as observações e previsões meteorológicas.

Para alterar o mapa : clique nos botões verdes com uma cruz preta para aumentar o zoom; no botão verde com uma pitada de zoom; ou nas setas verdes para mapas adjacentes.


METAR-TAF: